createdAt,value
2023-04-14T00:01:49.005Z,19.03
2023-04-14T00:04:16.387Z,20.38
2023-04-14T00:06:43.550Z,21.33
2023-04-14T00:09:10.541Z,21.20
2023-04-14T00:11:37.624Z,19.13
2023-04-14T00:14:04.541Z,19.80
2023-04-14T00:16:31.834Z,20.10
2023-04-14T00:18:58.833Z,20.30
2023-04-14T00:21:27.062Z,20.40
2023-04-14T00:23:53.813Z,20.40
2023-04-14T00:26:20.919Z,21.73
2023-04-14T00:28:48.004Z,21.57
2023-04-14T00:31:16.632Z,21.67
2023-04-14T00:33:43.372Z,23.57
2023-04-14T00:36:10.436Z,22.80
2023-04-14T00:38:37.166Z,22.33
2023-04-14T00:41:04.300Z,24.13
2023-04-14T00:43:31.051Z,26.10
2023-04-14T00:45:58.556Z,25.17
2023-04-14T00:48:25.602Z,24.33
2023-04-14T00:50:52.659Z,24.67
2023-04-14T00:53:20.105Z,26.10
2023-04-14T00:55:47.523Z,25.33
2023-04-14T00:58:15.889Z,24.27
2023-04-14T01:00:43.071Z,24.17
2023-04-14T01:03:10.208Z,24.97
2023-04-14T01:05:37.258Z,25.03
2023-04-14T01:08:04.368Z,25.73
2023-04-14T01:10:46.934Z,24.03
2023-04-14T01:13:43.702Z,25.87
2023-04-14T01:16:29.697Z,24.70
2023-04-14T01:19:26.364Z,23.73
2023-04-14T01:21:57.915Z,23.73
2023-04-14T01:24:36.949Z,24.93
2023-04-14T01:27:23.871Z,25.50
2023-04-14T01:30:09.085Z,22.80
2023-04-14T01:32:42.915Z,23.50
2023-04-14T01:35:20.799Z,22.40
2023-04-14T01:37:52.421Z,24.23
2023-04-14T01:40:20.886Z,23.03
2023-04-14T01:42:56.192Z,22.30
2023-04-14T01:45:26.591Z,23.10
2023-04-14T01:47:55.134Z,21.87
2023-04-14T01:50:23.250Z,21.90
2023-04-14T01:52:54.620Z,22.10
2023-04-14T01:55:26.486Z,22.50
2023-04-14T01:57:57.594Z,22.57
2023-04-14T02:00:25.629Z,22.70
2023-04-14T02:02:54.325Z,22.80
2023-04-14T02:05:23.104Z,23.00
2023-04-14T02:07:53.127Z,21.53
2023-04-14T02:10:21.737Z,22.90
2023-04-14T02:12:52.648Z,21.87
2023-04-14T02:15:20.732Z,22.30
2023-04-14T02:17:50.814Z,21.80
2023-04-14T02:20:20.400Z,21.87
2023-04-14T02:22:48.366Z,21.97
2023-04-14T02:25:15.107Z,22.17
2023-04-14T02:28:15.972Z,23.93
2023-04-14T02:30:47.051Z,21.73
2023-04-14T02:33:19.304Z,21.63
2023-04-14T02:36:10.787Z,21.67
2023-04-14T02:38:45.877Z,24.00
2023-04-14T02:41:20.226Z,22.43
2023-04-14T02:44:14.284Z,22.30
2023-04-14T02:46:46.082Z,21.43
2023-04-14T02:49:16.466Z,20.40
2023-04-14T02:51:46.884Z,20.63
2023-04-14T02:54:18.132Z,21.30
2023-04-14T02:56:48.046Z,22.93
2023-04-14T02:59:17.441Z,21.50
2023-04-14T03:01:54.742Z,20.70
2023-04-14T03:04:23.545Z,19.80
2023-04-14T03:06:51.727Z,21.83
2023-04-14T03:09:22.087Z,21.37
2023-04-14T03:11:50.046Z,23.02
2023-04-14T03:14:19.202Z,23.37
2023-04-14T03:16:47.033Z,23.13
2023-04-14T03:19:14.767Z,22.63
2023-04-14T03:21:46.345Z,22.50
2023-04-14T03:24:18.077Z,21.90
2023-04-14T03:26:47.429Z,22.10
2023-04-14T03:29:19.233Z,22.27
2023-04-14T03:31:47.686Z,21.33
2023-04-14T03:34:17.082Z,22.07
2023-04-14T03:36:54.534Z,22.53
2023-04-14T03:39:26.412Z,21.90
2023-04-14T03:41:58.011Z,20.70
2023-04-14T03:44:27.474Z,22.43
2023-04-14T03:46:54.665Z,21.70
2023-04-14T03:49:24.309Z,22.43
2023-04-14T03:51:54.799Z,20.63
2023-04-14T03:54:24.598Z,21.20
2023-04-14T03:56:56.856Z,20.13
2023-04-14T03:59:27.412Z,21.27
2023-04-14T04:01:56.030Z,23.73
2023-04-14T04:04:26.640Z,23.93
2023-04-14T04:06:53.982Z,23.03
2023-04-14T04:09:24.510Z,25.40
2023-04-14T04:11:57.209Z,24.63
2023-04-14T04:14:28.126Z,23.30
2023-04-14T04:16:56.267Z,23.57
2023-04-14T04:19:25.252Z,23.20
2023-04-14T04:21:57.006Z,22.40
2023-04-14T04:24:27.088Z,22.87
2023-04-14T04:26:54.322Z,22.70
2023-04-14T04:29:23.432Z,23.83
2023-04-14T04:31:51.118Z,24.93
2023-04-14T04:34:20.855Z,24.43
2023-04-14T04:36:48.167Z,22.80
2023-04-14T04:39:15.749Z,24.53
2023-04-14T04:41:43.684Z,22.40
2023-04-14T04:44:11.367Z,22.33
2023-04-14T04:46:54.384Z,22.63
2023-04-14T04:49:25.987Z,21.97
2023-04-14T04:51:54.467Z,22.00
2023-04-14T04:54:21.660Z,22.40
2023-04-14T04:56:48.406Z,20.63
2023-04-14T04:59:16.135Z,22.53
2023-04-14T05:01:42.988Z,22.13
2023-04-14T05:04:10.144Z,20.73
2023-04-14T05:06:37.560Z,21.53
2023-04-14T05:09:05.074Z,20.77
2023-04-14T05:11:33.250Z,21.83
2023-04-14T05:14:00.613Z,20.45
2023-04-14T05:16:28.366Z,20.77
2023-04-14T05:18:56.211Z,20.50
2023-04-14T05:21:23.068Z,19.97
2023-04-14T05:23:50.448Z,19.77
2023-04-14T05:28:47.229Z,19.93
2023-04-14T05:31:14.029Z,19.73
2023-04-14T05:33:41.094Z,17.90
2023-04-14T05:36:08.357Z,18.50
2023-04-14T05:38:40.081Z,19.50
2023-04-14T05:41:07.742Z,18.83
2023-04-14T05:43:34.980Z,17.73
2023-04-14T05:46:02.346Z,17.97
2023-04-14T05:48:30.808Z,19.67
2023-04-14T05:50:58.160Z,17.67
2023-04-14T05:53:25.788Z,17.90
2023-04-14T05:55:52.851Z,18.33
2023-04-14T05:58:20.141Z,16.47
2023-04-14T06:00:47.069Z,16.77
2023-04-14T06:03:16.291Z,16.10
2023-04-14T06:05:43.396Z,15.57
2023-04-14T06:08:10.552Z,15.43
2023-04-14T06:10:37.398Z,15.90
2023-04-14T06:13:04.440Z,14.40
2023-04-14T06:15:31.539Z,14.73
2023-04-14T06:17:58.656Z,14.23
2023-04-14T06:20:25.786Z,14.73
2023-04-14T06:22:52.901Z,14.27
2023-04-14T06:25:19.742Z,14.20
2023-04-14T06:27:47.105Z,14.27
2023-04-14T06:30:16.879Z,15.30
2023-04-14T06:32:44.115Z,14.27
2023-04-14T06:35:18.977Z,11.90
2023-04-14T06:37:50.870Z,12.82
2023-04-14T06:40:17.654Z,12.63
2023-04-14T06:42:44.669Z,13.15
2023-04-14T06:45:11.633Z,11.52
2023-04-14T06:47:38.809Z,12.70
2023-04-14T06:50:06.311Z,11.85
2023-04-14T06:52:33.383Z,11.57
2023-04-14T06:55:00.341Z,12.35
2023-04-14T06:57:27.543Z,11.40
2023-04-14T06:59:54.315Z,12.32
2023-04-14T07:02:21.462Z,11.38
2023-04-14T07:04:48.396Z,11.90
2023-04-14T07:07:15.532Z,10.52
2023-04-14T07:09:42.927Z,9.98
2023-04-14T07:12:14.407Z,9.13
2023-04-14T07:14:41.530Z,8.77
2023-04-14T07:17:09.106Z,10.15
2023-04-14T07:19:35.867Z,11.07
2023-04-14T07:22:03.025Z,10.85
2023-04-14T07:24:29.774Z,11.57
2023-04-14T07:26:56.830Z,10.68
2023-04-14T07:29:23.708Z,11.23
2023-04-14T07:31:50.741Z,10.85
2023-04-14T07:34:18.104Z,11.00
2023-04-14T07:36:45.623Z,11.55
2023-04-14T07:39:12.553Z,12.30
2023-04-14T07:41:39.514Z,11.82
2023-04-14T07:44:06.361Z,11.30
2023-04-14T07:46:33.457Z,11.20
2023-04-14T07:49:00.436Z,11.57
2023-04-14T07:51:27.430Z,10.65
2023-04-14T07:53:56.049Z,10.82
2023-04-14T07:56:23.153Z,10.30
2023-04-14T07:58:49.901Z,10.63
2023-04-14T08:01:17.109Z,9.52
2023-04-14T08:03:45.549Z,9.85
2023-04-14T08:06:13.254Z,8.93
2023-04-14T08:08:40.416Z,9.68
2023-04-14T08:11:07.439Z,9.23
2023-04-14T08:13:34.285Z,9.32
2023-04-14T08:16:01.393Z,8.88
2023-04-14T08:18:28.650Z,8.02
2023-04-14T08:20:56.567Z,9.15
2023-04-14T08:23:23.302Z,8.63
2023-04-14T08:25:50.693Z,8.15
2023-04-14T08:28:17.493Z,8.50
2023-04-14T08:30:44.628Z,9.23
2023-04-14T08:33:11.691Z,8.20
2023-04-14T08:35:42.595Z,8.05
2023-04-14T08:38:10.121Z,8.18
2023-04-14T08:40:39.914Z,7.10
2023-04-14T08:43:07.333Z,8.23
2023-04-14T08:45:35.608Z,7.97
2023-04-14T08:48:04.110Z,8.02
2023-04-14T08:50:43.465Z,7.47
2023-04-14T08:53:10.526Z,7.00
2023-04-14T08:55:41.846Z,7.07
2023-04-14T08:58:10.693Z,10.30
2023-04-14T09:00:40.156Z,7.00
2023-04-14T09:03:09.164Z,6.07
2023-04-14T09:05:37.398Z,6.80
2023-04-14T09:08:04.713Z,6.72
2023-04-14T09:10:31.957Z,6.38
2023-04-14T09:12:59.329Z,6.38
2023-04-14T09:15:29.063Z,6.38
2023-04-14T09:17:57.912Z,6.90
2023-04-14T09:20:36.841Z,5.97
2023-04-14T09:23:09.719Z,5.65
2023-04-14T09:25:39.055Z,6.25
2023-04-14T09:28:05.764Z,6.43
2023-04-14T09:30:33.507Z,6.88
2023-04-14T09:33:07.620Z,5.80
2023-04-14T09:35:49.645Z,5.93
2023-04-14T09:38:37.551Z,5.68
2023-04-14T09:41:08.600Z,5.88
2023-04-14T09:43:36.794Z,6.00
2023-04-14T09:46:09.660Z,6.40
2023-04-14T09:48:49.247Z,6.30
2023-04-14T09:51:16.368Z,5.53
2023-04-14T09:53:43.121Z,6.40
2023-04-14T09:56:11.665Z,6.65
2023-04-14T09:58:40.200Z,8.32
2023-04-14T10:01:15.702Z,6.78
2023-04-14T10:03:47.690Z,6.50
2023-04-14T10:06:23.249Z,6.63
2023-04-14T10:08:52.177Z,6.05
2023-04-14T10:11:30.057Z,6.78
2023-04-14T10:13:58.050Z,5.97
2023-04-14T10:16:25.730Z,6.35
2023-04-14T10:18:53.730Z,6.72
2023-04-14T10:21:23.072Z,6.57
2023-04-14T10:23:50.279Z,6.43
2023-04-14T10:26:18.827Z,5.60
2023-04-14T10:28:48.009Z,7.20
2023-04-14T10:31:22.288Z,5.60
2023-04-14T10:33:49.368Z,6.30
2023-04-14T10:36:27.201Z,5.78
2023-04-14T10:39:03.331Z,4.68
2023-04-14T10:41:42.601Z,4.97
2023-04-14T10:44:28.688Z,5.22
2023-04-14T10:46:57.118Z,5.53
2023-04-14T10:49:30.354Z,5.10
2023-04-14T10:52:21.218Z,6.20
2023-04-14T10:55:07.513Z,5.25
2023-04-14T10:57:40.097Z,5.55
2023-04-14T11:00:31.864Z,5.70
2023-04-14T11:02:59.083Z,4.85
2023-04-14T11:05:26.497Z,4.88
2023-04-14T11:07:56.127Z,5.40
2023-04-14T11:10:23.983Z,4.90
2023-04-14T11:13:02.408Z,5.30
2023-04-14T11:15:48.139Z,6.45
2023-04-14T11:18:37.484Z,6.57
2023-04-14T11:21:05.473Z,5.75
2023-04-14T11:23:34.516Z,5.40
2023-04-14T11:26:02.159Z,5.82
2023-04-14T11:28:36.931Z,5.00
2023-04-14T11:31:06.036Z,6.05
2023-04-14T11:33:38.372Z,6.80
2023-04-14T11:36:07.297Z,5.93
2023-04-14T11:38:40.721Z,5.07
2023-04-14T11:41:08.898Z,5.43
2023-04-14T11:43:38.242Z,6.15
2023-04-14T11:46:06.049Z,5.45
2023-04-14T11:48:33.325Z,4.45
2023-04-14T11:51:03.632Z,4.60
2023-04-14T11:53:32.129Z,5.60
2023-04-14T11:56:00.489Z,5.22
2023-04-14T11:58:27.782Z,4.82
2023-04-14T12:00:59.578Z,4.95
2023-04-14T12:03:33.008Z,6.47
2023-04-14T12:06:01.716Z,6.95
2023-04-14T12:08:33.326Z,5.38
2023-04-14T12:11:15.979Z,5.63
2023-04-14T12:13:44.510Z,5.78
2023-04-14T12:16:11.949Z,5.43
2023-04-14T12:18:39.634Z,5.45
2023-04-14T12:21:09.747Z,5.45
2023-04-14T12:23:39.987Z,5.10
2023-04-14T12:26:11.965Z,5.22
2023-04-14T12:28:41.384Z,5.03
2023-04-14T12:31:09.227Z,5.70
2023-04-14T12:33:36.442Z,5.22
2023-04-14T12:36:08.078Z,6.65
2023-04-14T12:38:35.337Z,5.90
2023-04-14T12:41:02.250Z,8.80
2023-04-14T12:43:30.293Z,6.78
2023-04-14T12:45:58.768Z,6.07
2023-04-14T12:48:46.762Z,5.63
2023-04-14T12:51:18.628Z,6.13
2023-04-14T12:53:47.726Z,6.78
2023-04-14T12:56:27.407Z,6.45
2023-04-14T12:58:55.283Z,5.47
2023-04-14T13:01:22.696Z,5.03
2023-04-14T13:03:52.491Z,5.72
2023-04-14T13:06:21.373Z,6.30
2023-04-14T13:08:49.937Z,5.45
2023-04-14T13:11:18.017Z,5.95
2023-04-14T13:13:45.810Z,6.43
2023-04-14T13:16:16.728Z,6.93
2023-04-14T13:18:46.594Z,6.57
2023-04-14T13:21:13.564Z,6.40
2023-04-14T13:23:41.010Z,6.93
2023-04-14T13:26:08.449Z,6.93
2023-04-14T13:28:36.803Z,6.90
2023-04-14T13:31:03.782Z,6.30
2023-04-14T13:33:32.406Z,6.15
2023-04-14T13:35:59.189Z,6.15
2023-04-14T13:38:27.271Z,6.72
2023-04-14T13:40:53.972Z,6.85
2023-04-14T13:43:21.516Z,6.45
2023-04-14T13:45:48.342Z,6.38
2023-04-14T13:48:15.522Z,6.13
2023-04-14T13:50:42.334Z,6.25
2023-04-14T13:53:09.442Z,6.28
2023-04-14T13:55:36.545Z,5.72
2023-04-14T13:58:03.835Z,6.35
2023-04-14T14:00:30.864Z,5.22
2023-04-14T14:02:58.080Z,5.57
2023-04-14T14:05:24.993Z,5.88
2023-04-14T14:07:52.139Z,5.70
2023-04-14T14:10:19.354Z,5.93
2023-04-14T14:12:46.547Z,4.78
2023-04-14T14:15:13.625Z,5.53
2023-04-14T14:17:41.498Z,5.45
2023-04-14T14:20:09.552Z,4.85
2023-04-14T14:22:36.912Z,5.85
2023-04-14T14:25:17.523Z,6.03
2023-04-14T14:27:45.823Z,5.53
2023-04-14T14:30:13.076Z,6.25
2023-04-14T14:32:40.223Z,6.03
2023-04-14T14:35:07.268Z,7.53
2023-04-14T14:37:34.385Z,5.20
2023-04-14T14:40:01.335Z,5.38
2023-04-14T14:42:28.379Z,4.60
2023-04-14T14:44:55.348Z,4.22
2023-04-14T14:47:22.466Z,3.83
2023-04-14T14:49:59.754Z,4.03
2023-04-14T14:52:31.306Z,3.85
2023-04-14T14:54:58.088Z,3.65
2023-04-14T14:57:25.152Z,3.92
2023-04-14T14:59:52.750Z,3.47
2023-04-14T15:02:21.266Z,3.00
2023-04-14T15:04:48.948Z,3.65
2023-04-14T15:07:16.120Z,4.30
2023-04-14T15:09:42.950Z,3.20
2023-04-14T15:12:10.079Z,4.22
2023-04-14T15:14:36.946Z,4.70
2023-04-14T15:17:03.991Z,3.97
2023-04-14T15:19:30.721Z,4.03
2023-04-14T15:21:58.466Z,4.18
2023-04-14T15:24:25.316Z,4.10
2023-04-14T15:26:52.378Z,4.80
2023-04-14T15:29:19.572Z,3.90
2023-04-14T15:31:46.735Z,5.85
2023-04-14T15:34:13.541Z,4.13
2023-04-14T15:36:40.592Z,4.65
2023-04-14T15:39:07.652Z,4.45
2023-04-14T15:41:36.334Z,6.45
2023-04-14T15:44:03.366Z,4.60
2023-04-14T15:46:30.939Z,4.78
2023-04-14T15:48:57.703Z,4.25
2023-04-14T15:51:24.852Z,3.83
2023-04-14T15:53:51.980Z,5.10
2023-04-14T15:56:19.137Z,4.20
2023-04-14T15:58:46.022Z,3.95
2023-04-14T16:01:13.100Z,3.80
2023-04-14T16:03:40.059Z,4.05
2023-04-14T16:06:07.408Z,3.97
2023-04-14T16:08:34.474Z,4.78
2023-04-14T16:11:02.422Z,3.92
2023-04-14T16:13:29.213Z,3.50
2023-04-14T16:15:57.272Z,3.65
2023-04-14T16:18:24.263Z,4.00
2023-04-14T16:20:51.436Z,4.35
2023-04-14T16:23:18.167Z,7.88
2023-04-14T16:25:51.043Z,4.25
2023-04-14T16:28:18.072Z,3.47
2023-04-14T16:30:45.867Z,3.42
2023-04-14T16:33:13.202Z,3.67
2023-04-14T16:35:40.572Z,2.92
2023-04-14T16:38:08.775Z,3.03
2023-04-14T16:40:36.729Z,2.95
2023-04-14T16:43:04.367Z,3.70
2023-04-14T16:45:32.035Z,4.45
2023-04-14T16:47:59.080Z,4.50
2023-04-14T16:50:26.938Z,3.50
2023-04-14T16:52:53.869Z,5.15
2023-04-14T16:55:21.093Z,4.20
2023-04-14T16:57:47.999Z,25.70
2023-04-14T17:00:15.350Z,8.07
2023-04-14T17:02:42.646Z,3.45
2023-04-14T17:05:11.193Z,3.70
2023-04-14T17:07:38.099Z,3.05
2023-04-14T17:10:05.827Z,4.38
2023-04-14T17:12:33.140Z,3.97
2023-04-14T17:15:01.110Z,4.00
2023-04-14T17:17:28.424Z,3.35
2023-04-14T17:19:56.851Z,3.65
2023-04-14T17:22:24.641Z,4.85
2023-04-14T17:24:52.559Z,4.78
2023-04-14T17:27:19.421Z,3.90
2023-04-14T17:29:46.493Z,6.43
2023-04-14T17:32:14.874Z,4.57
2023-04-14T17:34:42.252Z,6.35
2023-04-14T17:37:09.045Z,4.63
2023-04-14T17:39:36.279Z,5.70
2023-04-14T17:42:03.439Z,5.03
2023-04-14T17:44:32.762Z,4.88
2023-04-14T17:47:03.640Z,6.15
2023-04-14T17:49:31.482Z,9.05
2023-04-14T17:51:58.665Z,6.38
2023-04-14T17:54:26.480Z,8.23
2023-04-14T17:56:54.180Z,8.93
2023-04-14T17:59:21.489Z,7.53
2023-04-14T18:01:48.656Z,7.53
2023-04-14T18:04:16.038Z,6.90
2023-04-14T18:06:42.811Z,7.78
2023-04-14T18:09:10.618Z,7.93
2023-04-14T18:11:37.793Z,7.93
2023-04-14T18:14:05.226Z,8.07
2023-04-14T18:16:32.387Z,8.23
2023-04-14T18:19:00.310Z,8.50
2023-04-14T18:21:28.046Z,9.00
2023-04-14T18:26:26.670Z,8.48
2023-04-14T18:28:55.702Z,8.60
2023-04-14T18:31:22.525Z,8.50
2023-04-14T18:33:49.702Z,9.85
2023-04-14T18:36:16.475Z,10.38
2023-04-14T18:38:43.451Z,11.60
2023-04-14T18:41:10.330Z,13.40
2023-04-14T18:43:38.012Z,12.98
2023-04-14T18:46:04.760Z,10.75
2023-04-14T18:48:31.891Z,9.80
2023-04-14T18:51:01.899Z,9.40
2023-04-14T18:53:29.481Z,8.95
2023-04-14T18:55:56.289Z,9.98
2023-04-14T18:58:23.844Z,9.70
2023-04-14T19:00:51.409Z,9.98
2023-04-14T19:03:18.692Z,11.48
2023-04-14T19:05:45.543Z,9.18
2023-04-14T19:08:12.594Z,9.15
2023-04-14T19:10:40.623Z,9.43
2023-04-14T19:13:08.018Z,8.75
2023-04-14T19:15:35.472Z,11.18
2023-04-14T19:18:03.649Z,10.02
2023-04-14T19:20:30.813Z,8.88
2023-04-14T19:22:58.455Z,9.00
2023-04-14T19:25:25.611Z,8.77
2023-04-14T19:27:52.626Z,8.10
2023-04-14T19:30:19.588Z,6.95
2023-04-14T19:32:46.680Z,7.93
2023-04-14T19:35:13.558Z,6.72
2023-04-14T19:37:40.628Z,7.47
2023-04-14T19:40:08.333Z,7.03
2023-04-14T19:42:35.671Z,7.25
2023-04-14T19:45:02.506Z,7.47
2023-04-14T19:47:29.766Z,6.60
2023-04-14T19:49:59.570Z,7.10
2023-04-14T19:52:28.244Z,7.27
2023-04-14T19:54:56.368Z,6.63
2023-04-14T19:57:23.955Z,7.03
2023-04-14T19:59:50.635Z,6.75
2023-04-14T20:02:17.987Z,6.50
2023-04-14T20:04:45.154Z,7.00
2023-04-14T20:07:12.738Z,6.80
2023-04-14T20:09:44.811Z,7.13
2023-04-14T20:12:12.812Z,6.38
2023-04-14T20:14:40.391Z,7.32
2023-04-14T20:17:08.975Z,7.05
2023-04-14T20:19:36.906Z,8.05
2023-04-14T20:22:04.757Z,8.05
2023-04-14T20:24:31.493Z,6.50
2023-04-14T20:26:58.707Z,6.57
2023-04-14T20:29:25.638Z,7.68
2023-04-14T20:31:53.523Z,7.32
2023-04-14T20:34:20.915Z,7.18
2023-04-14T20:36:49.005Z,7.05
2023-04-14T20:39:17.446Z,8.77
2023-04-14T20:41:47.484Z,6.88
2023-04-14T20:44:14.214Z,7.05
2023-04-14T20:46:43.529Z,8.75
2023-04-14T20:49:10.332Z,6.82
2023-04-14T20:51:39.477Z,8.15
2023-04-14T20:54:06.957Z,7.55
2023-04-14T20:56:34.132Z,7.90
2023-04-14T20:59:01.189Z,7.82
2023-04-14T21:01:28.570Z,7.90
2023-04-14T21:03:56.225Z,7.95
2023-04-14T21:06:23.724Z,8.47
2023-04-14T21:08:51.040Z,8.25
2023-04-14T21:11:18.896Z,8.77
2023-04-14T21:15:30.459Z,8.87
2023-04-14T21:16:34.402Z,8.57
2023-04-14T21:19:02.574Z,8.52
2023-04-14T21:21:30.210Z,7.97
2023-04-14T21:23:56.946Z,8.03
2023-04-14T21:26:24.135Z,8.43
2023-04-14T21:28:50.967Z,8.75
2023-04-14T21:31:18.459Z,8.43
2023-04-14T21:33:46.366Z,10.07
2023-04-14T21:36:13.482Z,9.07
2023-04-14T21:38:40.461Z,8.75
2023-04-14T21:41:10.755Z,9.07
2023-04-14T21:43:38.760Z,9.15
2023-04-14T21:46:05.934Z,9.00
2023-04-14T21:48:32.823Z,9.38
2023-04-14T21:51:00.007Z,9.43
2023-04-14T21:53:27.273Z,10.30
2023-04-14T21:55:58.703Z,9.73
2023-04-14T21:58:36.574Z,9.73
2023-04-14T22:01:03.744Z,10.48
2023-04-14T22:03:30.682Z,10.13
2023-04-14T22:05:57.863Z,10.27
2023-04-14T22:08:24.622Z,9.88
2023-04-14T22:10:52.675Z,9.97
2023-04-14T22:13:19.434Z,9.85
2023-04-14T22:15:46.822Z,9.67
2023-04-14T22:18:13.744Z,10.07
2023-04-14T22:20:40.775Z,9.63
2023-04-14T22:23:07.557Z,9.70
2023-04-14T22:25:35.328Z,9.27
2023-04-14T22:28:02.076Z,10.53
2023-04-14T22:30:29.944Z,10.23
2023-04-14T22:32:57.366Z,9.55
2023-04-14T22:35:24.708Z,9.97
2023-04-14T22:37:51.676Z,10.13
2023-04-14T22:40:18.699Z,9.35
2023-04-14T22:42:46.001Z,9.57
2023-04-14T22:45:13.588Z,9.60
2023-04-14T22:47:40.690Z,10.23
2023-04-14T22:50:08.284Z,9.33
2023-04-14T22:52:34.980Z,10.27
2023-04-14T22:55:02.304Z,10.15
2023-04-14T22:57:29.122Z,9.77
2023-04-14T22:59:56.510Z,8.93
2023-04-14T23:02:23.361Z,8.63
2023-04-14T23:04:51.291Z,9.52
2023-04-14T23:07:18.113Z,8.83
2023-04-14T23:09:45.218Z,9.07
2023-04-14T23:12:12.012Z,8.77
2023-04-14T23:14:39.086Z,9.73
2023-04-14T23:17:06.076Z,9.20
2023-04-14T23:19:33.656Z,9.47
2023-04-14T23:22:00.525Z,9.80
2023-04-14T23:24:27.622Z,9.50
2023-04-14T23:26:54.675Z,10.07
2023-04-14T23:29:21.688Z,9.77
2023-04-14T23:31:48.593Z,9.03
2023-04-14T23:34:16.862Z,8.60
2023-04-14T23:36:46.240Z,9.02
2023-04-14T23:39:13.213Z,8.93
2023-04-14T23:41:39.926Z,8.93
2023-04-14T23:44:07.073Z,8.70
2023-04-14T23:46:34.459Z,9.50
2023-04-14T23:49:10.495Z,9.32
2023-04-14T23:51:48.792Z,8.87
2023-04-14T23:54:15.811Z,9.53
2023-04-14T23:56:42.553Z,9.43
2023-04-14T23:59:09.748Z,9.77
